Time;durP1;ratioP1;P1;durP2;ratioP2;P2;SDS_P1;SDS_P2;PMS_P1;PMS_P2;Temp;Humidity;BMP_temperature;BMP_pressure;BME280_temperature;BME280_humidity;BME280_pressure;Samples;Min_cycle;Max_cycle;Signal;HPM_P1;HPM_P2
2021/09/22 00:04:12;;;;;;;26.20;16.40;;;;;;;11.78;69.35;99655.08;236029;1195;139356;-63
2021/09/22 00:09:15;;;;;;;25.30;16.10;;;;;;;11.79;69.41;99650.42;235797;1195;138875;-63
2021/09/22 00:14:18;;;;;;;23.80;16.00;;;;;;;11.69;69.35;99643.88;236084;1195;139466;-62
2021/09/22 00:19:21;;;;;;;24.90;17.10;;;;;;;11.63;69.28;99636.02;236216;1194;140999;-62
2021/09/22 00:24:24;;;;;;;27.40;17.00;;;;;;;11.64;69.70;99632.58;235275;1195;139066;-63
2021/09/22 00:29:28;;;;;;;25.80;17.70;;;;;;;11.67;69.66;99635.86;235504;1195;138208;-66
2021/09/22 00:34:32;;;;;;;26.10;16.70;;;;;;;11.64;69.34;99629.63;235266;1194;138789;-65
2021/09/22 00:39:35;;;;;;;26.30;17.30;;;;;;;11.59;69.49;99625.05;234647;1195;138806;-62
2021/09/22 00:44:57;;;;;;;26.50;17.60;;;;;;;11.56;69.74;99623.25;234173;1196;138374;-61
2021/09/22 00:50:02;;;;;;;25.30;16.50;;;;;;;11.51;69.24;99611.29;235528;1195;139487;-63
2021/09/22 00:55:08;;;;;;;22.60;16.40;;;;;;;11.53;69.88;99605.70;235786;1195;139831;-63
2021/09/22 01:00:13;;;;;;;27.10;16.70;;;;;;;11.58;69.99;99599.36;235582;1195;138854;-63
2021/09/22 01:05:20;;;;;;;23.30;16.10;;;;;;;11.58;69.84;99594.55;236199;1195;138887;-62
2021/09/22 01:10:24;;;;;;;22.90;16.60;;;;;;;11.54;69.91;99590.69;236132;1195;138850;-63
2021/09/22 01:15:38;;;;;;;23.30;15.20;;;;;;;11.51;70.06;99587.70;235498;1195;139273;-62
2021/09/22 01:20:43;;;;;;;20.70;13.40;;;;;;;11.46;69.96;99575.56;235295;1194;140058;-63
2021/09/22 01:25:49;;;;;;;20.50;13.80;;;;;;;11.48;69.90;99573.96;235733;1195;139311;-64
2021/09/22 01:30:53;;;;;;;20.70;14.10;;;;;;;11.47;69.92;99570.31;235606;1195;138832;-62
2021/09/22 01:35:57;;;;;;;18.60;13.90;;;;;;;11.47;70.05;99569.93;236267;1194;139276;-64
2021/09/22 01:41:05;;;;;;;20.70;14.90;;;;;;;11.46;70.03;99566.45;235109;1195;151604;-64
2021/09/22 01:46:11;;;;;;;19.90;13.80;;;;;;;11.43;70.26;99560.27;236307;1195;139237;-64
2021/09/22 01:51:15;;;;;;;17.20;12.40;;;;;;;11.45;70.33;99558.67;235995;1195;139863;-63
2021/09/22 01:56:44;;;;;;;19.30;13.60;;;;;;;11.50;70.28;99553.44;236142;1194;138947;-65
2021/09/22 02:01:47;;;;;;;17.10;11.60;;;;;;;11.47;69.97;99548.63;235882;1195;139260;-62
2021/09/22 02:06:59;;;;;;;10.10;6.60;;;;;;;11.45;69.94;99543.04;235875;1195;140439;-64
2021/09/22 02:12:03;;;;;;;10.80;7.60;;;;;;;11.42;69.90;99533.64;236403;1195;138748;-62
2021/09/22 02:17:08;;;;;;;10.10;6.50;;;;;;;11.39;70.04;99530.76;235704;1194;139592;-64
2021/09/22 02:22:14;;;;;;;9.20;5.40;;;;;;;11.38;70.13;99527.14;235851;1195;139472;-62
2021/09/22 02:27:45;;;;;;;9.10;5.60;;;;;;;11.38;69.72;99516.27;235913;1195;138481;-65
2021/09/22 02:32:49;;;;;;;6.10;4.60;;;;;;;11.36;70.09;99516.56;236118;1195;138330;-64
2021/09/22 02:37:53;;;;;;;5.50;4.00;;;;;;;11.34;69.51;99517.23;235811;1195;138649;-61
2021/09/22 02:43:12;;;;;;;5.10;3.50;;;;;;;11.24;69.55;99515.30;236207;1195;138516;-64
2021/09/22 02:48:15;;;;;;;4.50;2.80;;;;;;;11.20;69.29;99503.84;236077;1195;138735;-61
2021/09/22 02:53:19;;;;;;;3.80;2.90;;;;;;;11.14;69.38;99500.45;236084;1195;139178;-64
2021/09/22 02:58:22;;;;;;;3.20;2.30;;;;;;;11.09;69.50;99499.48;236179;1194;139287;-68
2021/09/22 03:03:25;;;;;;;3.40;2.90;;;;;;;11.06;69.21;99498.59;235797;1195;139210;-61
2021/09/22 03:08:29;;;;;;;4.20;2.90;;;;;;;11.04;69.28;99496.39;236177;1195;138661;-62
2021/09/22 03:13:33;;;;;;;3.90;2.90;;;;;;;11.00;69.46;99498.17;236195;1195;138380;-63
2021/09/22 03:18:37;;;;;;;4.10;3.10;;;;;;;10.98;69.35;99490.67;235388;1194;138235;-63
2021/09/22 03:23:40;;;;;;;4.00;3.20;;;;;;;10.97;69.64;99490.06;235943;1195;138483;-62
2021/09/22 03:28:44;;;;;;;5.60;3.50;;;;;;;10.91;69.87;99484.19;236083;1195;138578;-64
2021/09/22 03:33:47;;;;;;;5.30;3.40;;;;;;;10.88;69.82;99484.52;236012;1194;139493;-65
2021/09/22 03:38:50;;;;;;;4.90;3.60;;;;;;;10.91;69.80;99483.26;235921;1194;139272;-62
2021/09/22 03:43:54;;;;;;;5.30;4.00;;;;;;;10.94;69.74;99478.86;235916;1195;138457;-63
2021/09/22 03:48:57;;;;;;;5.50;3.80;;;;;;;10.95;70.01;99480.91;235976;1195;138444;-64
2021/09/22 03:54:00;;;;;;;4.60;3.60;;;;;;;10.94;69.84;99479.71;235670;1194;138567;-65
2021/09/22 03:59:04;;;;;;;4.90;3.60;;;;;;;10.91;69.96;99472.24;235813;1195;138590;-60
2021/09/22 04:04:11;;;;;;;5.00;3.40;;;;;;;10.88;69.96;99474.36;235354;1195;139549;-58
2021/09/22 04:09:15;;;;;;;4.90;3.90;;;;;;;10.90;70.20;99486.53;236011;1194;139935;-69
2021/09/22 04:14:18;;;;;;;5.30;4.00;;;;;;;10.97;70.40;99477.42;235865;1194;138607;-64
2021/09/22 04:19:22;;;;;;;4.20;3.70;;;;;;;10.96;69.89;99474.83;235847;1195;138614;-62
2021/09/22 04:24:25;;;;;;;5.10;3.50;;;;;;;10.89;70.11;99480.90;235787;1195;138751;-67
2021/09/22 04:29:29;;;;;;;6.30;3.70;;;;;;;10.85;70.21;99479.90;235817;1194;138005;-64
2021/09/22 04:34:51;;;;;;;4.70;3.80;;;;;;;10.82;70.19;99483.25;235204;1195;140257;-63
2021/09/22 04:40:13;;;;;;;5.70;3.90;;;;;;;10.82;70.41;99488.04;236208;1195;139045;-65
2021/09/22 04:45:36;;;;;;;5.20;3.70;;;;;;;10.87;70.25;99486.16;236090;1195;139111;-62
2021/09/22 04:50:58;;;;;;;6.50;4.20;;;;;;;10.89;70.52;99485.15;235850;1195;139009;-62
2021/09/22 04:56:19;;;;;;;263.70;179.40;;;;;;;10.91;70.75;99491.62;236078;1195;139022;-64
2021/09/22 05:01:41;;;;;;;6.40;4.80;;;;;;;11.00;71.00;99493.58;236183;1194;139127;-62
2021/09/22 05:07:04;;;;;;;5.10;3.90;;;;;;;11.11;71.09;99494.59;235680;1195;139422;-62
2021/09/22 05:12:25;;;;;;;25.20;17.40;;;;;;;11.20;70.44;99499.04;235906;1195;138724;-64
2021/09/22 05:17:47;;;;;;;6.70;4.70;;;;;;;11.27;70.26;99498.11;236290;1195;138711;-62
2021/09/22 05:23:09;;;;;;;4.20;3.70;;;;;;;11.24;70.32;99508.75;235900;1195;138145;-63
2021/09/22 05:28:31;;;;;;;6.50;4.10;;;;;;;11.20;70.16;99511.27;236215;1194;138832;-62
2021/09/22 05:33:53;;;;;;;5.90;3.70;;;;;;;11.13;70.14;99514.14;236172;1195;139893;-61
2021/09/22 05:39:14;;;;;;;6.00;4.10;;;;;;;11.11;70.01;99516.58;236178;1195;139273;-60
2021/09/22 05:44:45;;;;;;;6.30;4.40;;;;;;;11.15;70.34;99520.09;235281;1195;138812;-61
2021/09/22 05:50:07;;;;;;;6.30;4.10;;;;;;;11.16;70.14;99518.77;236247;1195;138867;-62
2021/09/22 05:55:29;;;;;;;6.60;4.10;;;;;;;11.13;70.38;99523.92;236086;1195;138888;-61
2021/09/22 06:00:52;;;;;;;5.80;4.50;;;;;;;11.06;70.10;99528.58;236184;1195;138445;-60
2021/09/22 06:06:14;;;;;;;6.60;4.40;;;;;;;11.04;69.93;99528.35;236361;1195;138471;-62
2021/09/22 06:11:37;;;;;;;7.20;4.90;;;;;;;11.05;70.06;99530.23;235802;1194;139730;-61
2021/09/22 06:16:44;;;;;;;7.60;4.60;;;;;;;11.08;70.20;99534.65;236053;1195;139342;-59
2021/09/22 06:21:59;;;;;;;5.70;4.80;;;;;;;11.09;70.24;99532.70;236061;1195;138645;-60
2021/09/22 06:27:19;;;;;;;7.60;5.00;;;;;;;11.05;70.34;99526.66;236307;1195;138557;-60
2021/09/22 06:32:25;;;;;;;7.60;5.60;;;;;;;11.05;70.14;99537.67;235944;1195;138604;-58
2021/09/22 06:38:01;;;;;;;287.30;193.50;;;;;;;11.08;70.40;99542.11;235824;1195;138865;-64
2021/09/22 06:43:09;;;;;;;7.10;5.70;;;;;;;11.18;70.56;99543.17;235674;1196;141055;-60
2021/09/22 06:48:12;;;;;;;7.90;6.20;;;;;;;11.26;70.50;99541.84;236174;1195;139358;-60
2021/09/22 06:53:15;;;;;;;8.60;6.70;;;;;;;11.31;70.61;99543.86;235864;1195;138740;-62
2021/09/22 06:58:18;;;;;;;10.80;6.90;;;;;;;11.35;70.44;99548.42;235853;1195;138325;-62
2021/09/22 07:03:21;;;;;;;9.50;7.00;;;;;;;11.36;70.26;99550.30;236364;1195;138604;-62
2021/09/22 07:08:25;;;;;;;10.60;6.80;;;;;;;11.37;70.27;99552.06;236141;1194;137822;-61
2021/09/22 07:13:31;;;;;;;8.70;6.30;;;;;;;11.37;70.11;99553.13;236212;1194;138702;-61
2021/09/22 07:18:34;;;;;;;8.90;6.40;;;;;;;11.40;70.20;99560.42;236355;1195;139101;-62
2021/09/22 07:23:38;;;;;;;8.10;6.40;;;;;;;11.48;70.38;99561.76;236250;1195;138955;-60
2021/09/22 07:28:42;;;;;;;7.50;5.90;;;;;;;11.56;70.41;99568.35;236277;1195;138924;-59
2021/09/22 07:33:46;;;;;;;9.60;6.50;;;;;;;11.61;70.60;99576.77;236191;1196;138698;-60
2021/09/22 07:38:49;;;;;;;6.90;5.80;;;;;;;11.63;70.52;99582.90;235412;1196;138847;-61
2021/09/22 07:43:52;;;;;;;10.10;5.60;;;;;;;11.64;70.58;99591.23;235419;1195;138492;-66
2021/09/22 07:48:55;;;;;;;133.30;92.60;;;;;;;11.67;70.59;99594.75;235775;1195;139461;-59
2021/09/22 07:53:58;;;;;;;8.80;6.30;;;;;;;11.77;70.94;99591.89;236427;1195;140347;-59
2021/09/22 07:59:02;;;;;;;9.60;5.60;;;;;;;11.84;70.39;99591.48;235626;1195;139369;-58
2021/09/22 08:04:05;;;;;;;8.50;6.30;;;;;;;11.79;70.19;99600.10;235762;1195;140058;-62
2021/09/22 08:09:08;;;;;;;8.20;5.90;;;;;;;11.76;70.32;99609.15;235943;1195;139246;-62
2021/09/22 08:14:12;;;;;;;10.20;6.40;;;;;;;11.74;70.29;99613.02;235610;1195;139298;-63
2021/09/22 08:19:15;;;;;;;9.00;6.20;;;;;;;11.72;70.31;99618.27;236279;1195;138495;-64
2021/09/22 08:24:18;;;;;;;8.40;5.60;;;;;;;11.76;70.27;99620.70;235586;1195;139423;-63
2021/09/22 08:29:21;;;;;;;10.70;6.60;;;;;;;11.83;70.29;99627.12;235526;1195;139051;-64
2021/09/22 08:34:25;;;;;;;10.50;6.70;;;;;;;11.90;70.32;99627.26;235938;1195;141171;-62
2021/09/22 08:39:32;;;;;;;10.80;7.20;;;;;;;11.93;70.16;99621.70;235537;1195;138705;-61
2021/09/22 08:44:35;;;;;;;8.80;6.30;;;;;;;12.00;70.51;99619.17;236067;1195;138534;-61
2021/09/22 08:49:40;;;;;;;7.80;5.50;;;;;;;12.03;70.20;99617.05;235580;1196;138122;-60
2021/09/22 08:54:44;;;;;;;11.00;7.50;;;;;;;12.03;69.79;99616.84;236023;1194;140472;-61
2021/09/22 08:59:48;;;;;;;14.10;7.90;;;;;;;12.08;70.05;99617.80;236304;1195;140100;-61
2021/09/22 09:05:04;;;;;;;8.30;5.40;;;;;;;12.12;69.64;99618.67;235640;1195;138719;-62
2021/09/22 09:10:08;;;;;;;7.60;5.20;;;;;;;12.15;69.63;99621.14;236309;1195;140841;-61
2021/09/22 09:15:14;;;;;;;7.60;5.40;;;;;;;12.16;69.39;99623.25;236204;1194;138512;-61
2021/09/22 09:20:23;;;;;;;8.10;6.20;;;;;;;12.20;69.40;99629.02;236355;1195;138836;-64
2021/09/22 09:25:29;;;;;;;8.20;5.70;;;;;;;12.21;69.55;99626.30;236174;1195;138791;-62
2021/09/22 09:30:32;;;;;;;6.90;5.10;;;;;;;12.23;69.85;99620.70;236380;1194;139340;-62
2021/09/22 09:35:35;;;;;;;7.60;5.10;;;;;;;12.31;69.60;99617.70;236178;1195;139676;-62
2021/09/22 09:40:38;;;;;;;10.30;5.70;;;;;;;12.41;69.69;99610.33;235471;1195;210510;-64
2021/09/22 09:45:43;;;;;;;7.30;5.10;;;;;;;12.49;69.70;99616.11;236135;1195;139192;-60
2021/09/22 09:50:52;;;;;;;7.70;5.90;;;;;;;12.49;69.34;99619.63;236107;1195;138451;-61
2021/09/22 09:55:57;;;;;;;7.20;5.40;;;;;;;12.53;69.44;99615.30;235908;1195;138398;-62
2021/09/22 10:01:00;;;;;;;8.80;5.80;;;;;;;12.51;69.13;99618.61;236035;1195;139180;-64
2021/09/22 10:06:03;;;;;;;8.60;5.40;;;;;;;12.49;68.88;99623.00;235671;1195;139007;-60
2021/09/22 10:11:07;;;;;;;7.80;4.90;;;;;;;12.52;68.95;99625.48;235697;1195;139157;-61
2021/09/22 10:16:10;;;;;;;6.70;5.20;;;;;;;12.60;68.96;99623.99;236006;1195;139469;-66
2021/09/22 10:21:18;;;;;;;47.80;29.40;;;;;;;12.69;69.21;99618.96;236074;1195;139612;-61
2021/09/22 10:26:23;;;;;;;9.20;5.50;;;;;;;12.81;69.40;99615.38;235892;1195;139492;-60
2021/09/22 10:31:29;;;;;;;7.80;5.10;;;;;;;12.86;68.69;99616.63;235693;1195;138478;-61
2021/09/22 10:36:39;;;;;;;7.30;5.40;;;;;;;12.90;68.54;99616.94;235575;1195;138930;-61
2021/09/22 10:41:44;;;;;;;85.60;68.40;;;;;;;12.94;68.73;99617.38;235892;1195;138936;-61
2021/09/22 10:46:47;;;;;;;9.00;7.00;;;;;;;13.00;68.39;99618.98;235702;1196;139323;-60
2021/09/22 10:51:50;;;;;;;11.00;5.10;;;;;;;13.00;68.20;99621.09;235728;1196;139561;-64
2021/09/22 10:56:58;;;;;;;8.60;5.40;;;;;;;13.06;68.39;99623.30;235966;1195;139766;-60
2021/09/22 11:02:04;;;;;;;12.80;5.50;;;;;;;13.05;67.90;99628.33;235963;1195;139442;-61
2021/09/22 11:07:08;;;;;;;6.90;5.00;;;;;;;13.01;67.68;99630.33;236109;1195;138824;-60
2021/09/22 11:12:13;;;;;;;33.60;16.70;;;;;;;13.00;67.93;99626.80;236188;1195;139631;-61
2021/09/22 11:17:24;;;;;;;10.40;5.30;;;;;;;13.01;67.75;99623.37;235382;1195;139716;-61
2021/09/22 11:22:33;;;;;;;8.30;5.00;;;;;;;12.95;67.82;99618.80;236145;1195;140508;-62
2021/09/22 11:27:38;;;;;;;8.90;5.00;;;;;;;12.90;67.49;99619.65;235932;1195;138701;-63
2021/09/22 11:32:43;;;;;;;76.40;53.30;;;;;;;12.92;67.71;99620.25;235809;1195;138211;-60
2021/09/22 11:37:48;;;;;;;8.80;4.70;;;;;;;13.01;68.04;99623.90;236194;1195;139108;-62
2021/09/22 11:42:58;;;;;;;9.30;4.50;;;;;;;13.09;67.47;99622.71;235441;1195;140290;-64
2021/09/22 11:48:02;;;;;;;7.30;4.70;;;;;;;13.13;67.47;99623.20;235980;1194;140911;-62
2021/09/22 11:53:07;;;;;;;10.60;5.00;;;;;;;13.15;67.51;99625.55;235682;1195;138448;-61
2021/09/22 11:58:14;;;;;;;8.90;5.00;;;;;;;13.15;67.11;99626.41;236028;1194;138996;-62
2021/09/22 12:03:22;;;;;;;6.70;4.40;;;;;;;13.15;66.88;99627.31;236151;1195;138691;-61
2021/09/22 12:08:30;;;;;;;7.40;4.60;;;;;;;13.09;66.84;99633.75;236048;1195;138354;-61
2021/09/22 12:13:51;;;;;;;7.80;4.70;;;;;;;13.06;66.70;99633.95;236340;1195;138802;-64
2021/09/22 12:18:56;;;;;;;52.90;34.00;;;;;;;13.04;66.87;99635.50;235950;1195;138594;-61
2021/09/22 12:24:06;;;;;;;8.80;5.10;;;;;;;13.06;66.75;99636.82;236261;1195;139818;-61
2021/09/22 12:29:12;;;;;;;5.20;3.60;;;;;;;13.08;66.47;99634.73;236412;1195;142213;-61
2021/09/22 12:34:26;;;;;;;9.00;5.00;;;;;;;13.18;66.55;99631.05;236124;1195;139762;-60
2021/09/22 12:39:29;;;;;;;7.30;4.40;;;;;;;13.40;66.75;99639.80;236008;1195;139293;-60
2021/09/22 12:44:54;;;;;;;8.10;3.80;;;;;;;13.58;66.56;99638.14;236397;1194;138876;-60
2021/09/22 12:50:07;;;;;;;6.20;3.70;;;;;;;13.71;66.11;99632.48;236222;1195;139013;-63
2021/09/22 12:55:23;;;;;;;3.80;2.90;;;;;;;13.77;65.62;99633.88;236084;1195;141529;-61
2021/09/22 13:00:55;;;;;;;5.20;2.90;;;;;;;13.81;65.23;99634.65;236159;1195;138844;-59
2021/09/22 13:06:14;;;;;;;11.00;6.90;;;;;;;13.84;64.84;99628.77;236262;1195;139185;-65
2021/09/22 13:11:20;;;;;;;6.60;3.70;;;;;;;14.26;67.99;99630.41;235829;1195;140083;-63
2021/09/22 13:16:38;;;;;;;;;;;;;;;15.37;68.75;99635.88;235916;1195;140143;-62
2021/09/22 13:21:44;;;;;;;4.30;3.40;;;;;;;15.75;65.41;99642.11;236400;1194;126217;-60
2021/09/22 13:26:49;;;;;;;3.80;2.50;;;;;;;15.50;63.53;99644.94;236188;1194;139095;-59
2021/09/22 13:32:03;;;;;;;7.50;2.70;;;;;;;15.20;62.94;99641.27;235672;1196;139345;-61
2021/09/22 13:37:07;;;;;;;5.20;3.20;;;;;;;14.92;62.68;99652.19;235790;1195;139115;-60
2021/09/22 13:42:11;;;;;;;4.60;3.00;;;;;;;14.67;62.62;99647.49;236197;1187;138577;-61
2021/09/22 13:47:15;;;;;;;59.30;42.50;;;;;;;14.44;62.28;99652.08;234000;1195;138633;-64
2021/09/22 13:52:24;;;;;;;11.10;5.50;;;;;;;14.34;62.51;99649.54;233996;1195;139436;-60
2021/09/22 13:57:28;;;;;;;5.60;3.30;;;;;;;14.26;62.37;99642.36;234081;1196;138669;-58
2021/09/22 14:02:35;;;;;;;5.90;3.10;;;;;;;14.15;62.05;99644.02;234300;1195;138368;-60
2021/09/22 14:07:40;;;;;;;6.30;3.10;;;;;;;14.02;61.76;99648.44;234245;1195;138326;-60
2021/09/22 14:12:46;;;;;;;4.30;3.20;;;;;;;13.86;61.71;99653.27;233923;1182;138514;-59
2021/09/22 14:17:51;;;;;;;4.10;3.20;;;;;;;13.72;61.64;99654.70;234117;1195;138679;-62
2021/09/22 14:22:56;;;;;;;7.20;3.30;;;;;;;13.60;61.56;99656.73;234260;1196;138770;-60
2021/09/22 14:28:00;;;;;;;6.40;3.20;;;;;;;13.53;61.71;99654.66;234356;1195;139771;-62
2021/09/22 14:33:09;;;;;;;6.40;3.70;;;;;;;13.44;61.66;99653.66;234012;1195;138767;-61
2021/09/22 14:38:14;;;;;;;6.40;3.60;;;;;;;13.38;61.80;99659.40;234346;1195;140969;-64
2021/09/22 14:43:19;;;;;;;8.10;4.70;;;;;;;13.36;61.91;99658.79;234005;1194;138218;-63
2021/09/22 14:48:26;;;;;;;12.40;4.60;;;;;;;13.33;61.88;99653.13;233789;1195;138838;-61
2021/09/22 14:53:30;;;;;;;14.40;7.60;;;;;;;13.31;61.91;99650.92;234378;1195;138572;-60
2021/09/22 14:58:36;;;;;;;11.20;5.10;;;;;;;13.29;61.78;99652.33;234479;1187;139084;-60
2021/09/22 15:03:46;;;;;;;13.30;5.40;;;;;;;13.26;62.04;99652.31;234050;1195;140501;-61
2021/09/22 15:08:52;;;;;;;15.30;5.10;;;;;;;13.22;62.17;99653.75;234106;1195;138420;-58
2021/09/22 15:13:58;;;;;;;10.40;5.70;;;;;;;13.19;62.26;99655.90;234571;1195;139062;-61
2021/09/22 15:19:02;;;;;;;10.50;6.20;;;;;;;13.21;62.72;99662.20;233846;1195;139320;-61
2021/09/22 15:24:06;;;;;;;9.20;5.40;;;;;;;13.20;62.57;99656.41;236179;1195;139215;-59
2021/09/22 15:29:09;;;;;;;10.60;5.10;;;;;;;13.15;62.42;99662.80;235734;1194;140920;-60
2021/09/22 15:34:12;;;;;;;10.00;5.00;;;;;;;13.15;62.63;99662.23;235402;1195;140698;-58
2021/09/22 15:39:15;;;;;;;8.30;5.20;;;;;;;13.19;62.61;99666.61;235400;1196;140629;-58
2021/09/22 15:44:18;;;;;;;9.70;5.60;;;;;;;13.21;62.46;99658.30;235728;1194;138447;-58
2021/09/22 15:49:22;;;;;;;8.70;5.70;;;;;;;13.22;62.46;99658.77;236221;1194;138409;-60
2021/09/22 15:54:25;;;;;;;8.90;5.90;;;;;;;13.22;62.41;99661.80;236025;1195;138998;-59
2021/09/22 15:59:29;;;;;;;22.30;14.80;;;;;;;13.21;62.40;99661.70;235816;1196;139067;-61
2021/09/22 16:04:33;;;;;;;15.00;7.10;;;;;;;13.25;62.41;99666.61;235700;1195;139568;-62
2021/09/22 16:09:36;;;;;;;11.50;8.20;;;;;;;13.21;62.37;99667.16;235678;1195;139326;-61
2021/09/22 16:14:40;;;;;;;27.80;19.50;;;;;;;13.19;62.44;99663.38;235893;1195;138830;-62
2021/09/22 16:19:43;;;;;;;40.30;28.40;;;;;;;13.24;62.67;99666.69;235867;1195;139212;-60
2021/09/22 16:24:47;;;;;;;15.80;9.80;;;;;;;13.23;62.68;99663.35;236055;1195;140243;-60
2021/09/22 16:29:50;;;;;;;14.60;8.00;;;;;;;13.17;62.49;99660.52;235965;1195;139075;-60
2021/09/22 16:34:53;;;;;;;296.40;212.50;;;;;;;13.09;62.56;99660.67;235913;1195;139139;-60
2021/09/22 16:39:56;;;;;;;13.30;7.90;;;;;;;13.06;62.85;99653.20;236230;1195;139459;-61
2021/09/22 16:45:18;;;;;;;10.70;7.70;;;;;;;13.14;62.79;99650.00;235994;1195;140065;-61
2021/09/22 16:50:22;;;;;;;14.00;7.80;;;;;;;13.12;62.72;99648.52;235910;1195;139278;-63
2021/09/22 16:55:25;;;;;;;62.50;48.50;;;;;;;13.11;62.85;99666.23;236035;1196;138672;-60
2021/09/22 17:00:29;;;;;;;11.70;8.50;;;;;;;13.13;63.22;99669.30;236249;1195;141234;-63
2021/09/22 17:05:32;;;;;;;15.60;9.00;;;;;;;13.09;62.89;99669.39;235566;1196;139115;-62
2021/09/22 17:10:37;;;;;;;12.30;8.00;;;;;;;13.04;62.91;99672.20;235565;1194;138428;-60
2021/09/22 17:15:40;;;;;;;14.20;8.30;;;;;;;12.98;63.09;99672.88;235183;1195;138773;-61
2021/09/22 17:20:44;;;;;;;11.10;7.30;;;;;;;12.91;63.12;99676.73;236165;1195;139252;-61
2021/09/22 17:25:48;;;;;;;13.10;8.30;;;;;;;12.87;63.16;99675.54;235747;1195;138525;-62
2021/09/22 17:30:52;;;;;;;12.70;7.50;;;;;;;12.82;63.20;99668.42;235952;1195;139571;-63
2021/09/22 17:35:55;;;;;;;11.90;6.90;;;;;;;12.80;63.47;99669.90;235924;1195;140293;-65
2021/09/22 17:40:58;;;;;;;14.80;7.60;;;;;;;12.80;63.53;99667.05;235942;1195;138988;-63
2021/09/22 17:46:02;;;;;;;15.30;8.40;;;;;;;12.82;63.77;99675.52;235577;1195;138855;-63
2021/09/22 17:51:08;;;;;;;18.60;13.00;;;;;;;12.85;63.99;99671.96;235949;1195;138672;-61
2021/09/22 17:56:12;;;;;;;17.20;8.80;;;;;;;12.91;64.00;99677.77;236028;1195;139461;-61
2021/09/22 18:01:15;;;;;;;28.30;13.70;;;;;;;12.91;64.02;99673.16;236182;1195;138808;-61
2021/09/22 18:06:20;;;;;;;17.60;10.10;;;;;;;12.91;64.07;99668.53;235895;1195;138665;-61
2021/09/22 18:11:23;;;;;;;15.60;11.10;;;;;;;12.86;64.26;99667.97;236087;1195;138826;-61
2021/09/22 18:16:26;;;;;;;17.80;11.20;;;;;;;12.80;64.18;99664.60;235979;1195;139311;-61
2021/09/22 18:21:30;;;;;;;16.00;10.20;;;;;;;12.76;64.35;99666.98;235920;1195;138671;-61
2021/09/22 18:26:34;;;;;;;18.00;11.00;;;;;;;12.75;64.57;99672.70;236183;1195;140417;-59
2021/09/22 18:31:38;;;;;;;22.80;12.30;;;;;;;12.73;64.63;99662.49;236181;1195;139810;-61
2021/09/22 18:36:42;;;;;;;20.80;12.90;;;;;;;12.73;64.61;99659.81;236089;1195;139358;-61
2021/09/22 18:41:46;;;;;;;19.70;13.00;;;;;;;12.74;64.68;99664.39;235959;1189;138769;-61
2021/09/22 18:46:50;;;;;;;22.50;13.50;;;;;;;12.71;64.87;99661.70;235358;1195;138998;-60
2021/09/22 18:51:54;;;;;;;20.80;13.20;;;;;;;12.68;64.94;99663.01;235808;1195;139253;-61
2021/09/22 18:57:00;;;;;;;29.00;13.90;;;;;;;12.66;65.09;99658.84;235898;1194;139779;-61
2021/09/22 19:02:06;;;;;;;21.10;13.80;;;;;;;12.63;64.99;99649.79;236033;1195;139304;-61
2021/09/22 19:07:10;;;;;;;21.70;14.40;;;;;;;12.57;65.18;99646.23;236233;1194;139075;-60
2021/09/22 19:12:13;;;;;;;19.50;12.70;;;;;;;12.54;65.20;99643.19;236218;1195;139487;-59
2021/09/22 19:17:17;;;;;;;23.30;14.40;;;;;;;12.58;65.26;99641.16;236053;1195;139989;-60
2021/09/22 19:22:20;;;;;;;21.40;13.60;;;;;;;12.61;65.39;99646.65;235993;1195;139123;-59
2021/09/22 19:27:27;;;;;;;22.20;14.60;;;;;;;12.57;65.34;99639.61;236154;1195;138805;-61
2021/09/22 19:32:31;;;;;;;24.80;15.50;;;;;;;12.52;65.21;99642.60;235977;1195;139003;-60
2021/09/22 19:37:35;;;;;;;25.90;16.00;;;;;;;12.49;65.76;99645.07;236194;1195;139075;-59
2021/09/22 19:42:38;;;;;;;25.60;16.40;;;;;;;12.48;65.55;99649.73;236358;1194;139542;-61
2021/09/22 19:47:41;;;;;;;27.10;16.80;;;;;;;12.42;65.64;99648.37;236001;1195;139232;-60
2021/09/22 19:52:45;;;;;;;28.70;15.90;;;;;;;12.39;65.87;99647.85;236107;1195;139625;-61
2021/09/22 19:57:48;;;;;;;24.80;16.10;;;;;;;12.44;65.74;99652.02;235771;1195;139129;-60
2021/09/22 20:02:53;;;;;;;25.30;16.30;;;;;;;12.45;66.03;99656.69;235996;1195;139536;-60
2021/09/22 20:07:57;;;;;;;25.10;16.30;;;;;;;12.44;65.99;99660.16;236042;1189;139560;-60
2021/09/22 20:13:00;;;;;;;27.00;15.40;;;;;;;12.40;65.95;99657.39;236153;1195;139396;-62
2021/09/22 20:18:03;;;;;;;26.10;16.30;;;;;;;12.34;66.15;99656.11;236084;1195;138936;-61
2021/09/22 20:23:07;;;;;;;26.80;16.10;;;;;;;12.29;65.98;99654.67;235919;1195;139648;-60
2021/09/22 20:28:11;;;;;;;24.10;14.90;;;;;;;12.24;65.96;99653.66;236049;1195;139257;-60
2021/09/22 20:33:14;;;;;;;26.30;15.30;;;;;;;12.25;66.36;99654.35;235937;1195;140058;-61
2021/09/22 20:38:17;;;;;;;29.30;15.80;;;;;;;12.28;66.35;99652.54;235272;1195;139513;-60
2021/09/22 20:43:20;;;;;;;24.30;15.90;;;;;;;12.34;66.37;99653.66;235949;1196;139609;-63
2021/09/22 20:48:24;;;;;;;24.70;15.90;;;;;;;12.37;66.26;99652.45;236233;1195;139573;-63
2021/09/22 20:53:27;;;;;;;28.40;16.10;;;;;;;12.38;66.48;99648.44;236120;1194;138998;-64
2021/09/22 20:58:30;;;;;;;25.00;15.60;;;;;;;12.39;66.54;99641.95;235567;1195;139106;-62
2021/09/22 21:03:34;;;;;;;22.90;14.30;;;;;;;12.36;66.34;99633.92;236088;1195;138519;-61
2021/09/22 21:08:37;;;;;;;21.70;14.00;;;;;;;12.31;66.54;99633.36;235712;1195;138992;-63
2021/09/22 21:13:40;;;;;;;24.30;13.80;;;;;;;12.29;66.33;99632.59;235808;1195;140330;-63
2021/09/22 21:18:44;;;;;;;21.70;14.90;;;;;;;12.27;66.51;99637.35;236058;1195;139058;-61
2021/09/22 21:23:47;;;;;;;20.10;14.00;;;;;;;12.24;66.54;99640.55;236148;1195;139452;-58
2021/09/22 21:28:50;;;;;;;24.10;13.50;;;;;;;12.25;66.70;99645.79;236046;1194;139827;-59
2021/09/22 21:33:53;;;;;;;22.70;14.70;;;;;;;12.25;66.79;99646.37;235864;1195;141702;-58
2021/09/22 21:38:56;;;;;;;23.70;14.30;;;;;;;12.24;66.44;99649.65;235378;1195;139631;-60
2021/09/22 21:43:59;;;;;;;23.10;14.10;;;;;;;12.19;66.67;99647.96;236150;1195;140728;-60
2021/09/22 21:49:03;;;;;;;30.70;14.50;;;;;;;12.13;66.58;99642.78;236313;1195;140230;-62
2021/09/22 21:54:06;;;;;;;55.60;35.80;;;;;;;12.14;66.96;99643.29;236278;1195;140041;-62
2021/09/22 21:59:10;;;;;;;23.90;14.70;;;;;;;12.28;66.98;99644.91;235827;1195;139622;-60
2021/09/22 22:04:16;;;;;;;23.80;14.90;;;;;;;12.32;66.72;99646.84;235925;1195;138737;-63
2021/09/22 22:09:20;;;;;;;28.30;16.10;;;;;;;12.29;66.60;99645.39;236278;1195;140191;-61
2021/09/22 22:14:25;;;;;;;22.30;14.80;;;;;;;12.27;66.81;99643.36;235351;1195;138815;-61
2021/09/22 22:19:31;;;;;;;26.30;16.10;;;;;;;12.21;66.65;99637.52;235867;1195;138633;-61
2021/09/22 22:24:34;;;;;;;;;;;;;;;12.17;67.13;99633.46;236189;1195;139132;-62
2021/09/22 22:29:38;;;;;;;27.40;15.60;;;;;;;12.17;66.90;99627.29;236061;1195;125956;-61
2021/09/22 22:34:41;;;;;;;24.20;15.50;;;;;;;12.17;67.06;99624.59;236100;1194;140158;-62
2021/09/22 22:39:44;;;;;;;27.40;16.30;;;;;;;12.17;66.94;99619.05;236019;1195;139182;-59
2021/09/22 22:44:47;;;;;;;26.70;16.80;;;;;;;12.20;67.24;99624.92;235805;1195;139916;-61
2021/09/22 22:49:50;;;;;;;28.40;17.20;;;;;;;12.20;67.05;99620.85;235887;1196;139099;-62
2021/09/22 22:54:53;;;;;;;26.70;17.30;;;;;;;12.15;67.17;99623.83;236036;1195;138902;-63
2021/09/22 22:59:57;;;;;;;27.50;17.50;;;;;;;12.14;67.17;99621.05;235741;1195;138627;-63
2021/09/22 23:05:00;;;;;;;24.80;15.80;;;;;;;12.09;67.27;99617.58;236145;1195;139046;-62
2021/09/22 23:10:03;;;;;;;27.60;14.30;;;;;;;12.07;67.31;99614.70;236142;1195;140610;-65
2021/09/22 23:15:22;;;;;;;23.60;16.20;;;;;;;12.07;67.26;99613.77;236186;1195;140060;-62